Blake Denton — WDC7496 — position and weather

sailwx.info

Track history (hours):
 
Tides and Currents Weather Stations Pressure Air Temp Water Temp Dewpoint Dewpoint Depression Visibility Wind Speed Wind Dir Waves Ship Positions

Blake Denton

More information available from US FCC via Universal Licensing System and Coast Guard Vessel Documentation Center.

Last reported at 2014-Jul-09 01:16 UTC. Time now 2014-Jul-23 11:55 UTC.
Position N 30°54' W 091°32'.
Warning: this ship's position is 14 days out of date.

Length 52 m.

Type: Towing. MMSI: 367072210.

Date/timePositionNaut miles runAvg speedWind from/ knotsBaromVisibWave heightAir tempDewpointWater temp
2014-Jul-09 01:16N 30°54' W 091°32'4 5.3
2014-Jul-09 00:33N 30°50' W 091°32'36 3.0
2014-Jul-08 12:32N 30°20' W 091°09'5 4.8
2014-Jul-08 11:33N 30°18' W 091°14'6 3.1
2014-Jul-08 09:29N 30°14' W 091°08'45 1.0
2014-Jul-06 13:32N 29°56' W 090°20'0 0.0
2014-Jul-06 12:31N 29°56' W 090°20'0 0.0
2014-Jul-06 11:33N 29°56' W 090°20'1 0.5
2014-Jul-06 10:33N 29°56' W 090°21'0 0.0
2014-Jul-06 09:32N 29°56' W 090°21'0 0.0
2014-Jul-06 07:30N 29°56' W 090°20'3 3.5
2014-Jul-06 06:33N 29°58' W 090°24'6 5.8
2014-Jul-06 05:32N 30°02' W 090°28'23 1.2
2014-Jul-05 10:26N 30°05' W 090°55'0 0.0
2014-Jul-05 09:14N 30°05' W 090°55'4 5.2
2014-Jul-05 08:30N 30°08' W 090°56'8 3.4
2014-Jul-05 06:08N 30°13' W 091°04'5 8.9
2014-Jul-05 05:33N 30°11' W 091°09'  
Track history (hours):
 
Tides and Currents Weather Stations Pressure Air Temp Water Temp Dewpoint Dewpoint Depression Visibility Wind Speed Wind Dir Waves Ship Positions

Blake Denton

More information available from US FCC via Universal Licensing System and Coast Guard Vessel Documentation Center.

Last reported at 2014-Jul-09 01:16 UTC. Time now 2014-Jul-23 11:55 UTC.
Position N 30°54' W 091°32'.
Warning: this ship's position is 14 days out of date.

Length 52 m.

Type: Towing. MMSI: 367072210.

Date/timePositionNaut miles runAvg speedWind from/ knotsBaromVisibWave heightAir tempDewpointWater temp
2014-Jul-09 01:16N 30°54' W 091°32'4 5.3
2014-Jul-09 00:33N 30°50' W 091°32'36 3.0
2014-Jul-08 12:32N 30°20' W 091°09'5 4.8
2014-Jul-08 11:33N 30°18' W 091°14'6 3.1
2014-Jul-08 09:29N 30°14' W 091°08'45 1.0
2014-Jul-06 13:32N 29°56' W 090°20'0 0.0
2014-Jul-06 12:31N 29°56' W 090°20'0 0.0
2014-Jul-06 11:33N 29°56' W 090°20'1 0.5
2014-Jul-06 10:33N 29°56' W 090°21'0 0.0
2014-Jul-06 09:32N 29°56' W 090°21'0 0.0
2014-Jul-06 07:30N 29°56' W 090°20'3 3.5
2014-Jul-06 06:33N 29°58' W 090°24'6 5.8
2014-Jul-06 05:32N 30°02' W 090°28'23 1.2
2014-Jul-05 10:26N 30°05' W 090°55'0 0.0
2014-Jul-05 09:14N 30°05' W 090°55'4 5.2
2014-Jul-05 08:30N 30°08' W 090°56'8 3.4
2014-Jul-05 06:08N 30°13' W 091°04'5 8.9
2014-Jul-05 05:33N 30°11' W 091°09'  

Dump ship's entire track history